Provincetown III — WDB8185 — position and weather

sailwx.info

Track history (hours):
 
Tides and Currents Weather Stations Pressure Air Temp Water Temp Dewpoint Dewpoint Depression Visibility Wind Speed Wind Dir Waves Ship Positions

Provincetown III

Owner: MYSTIC FERRY LEASING LLC, BOSTON, MA. More information available from US FCC via Universal Licensing System and Coast Guard Vessel Documentation Center.

Last reported at 2017-Dec-01 23:20 UTC. Time now 2018-Jan-22 12:44 UTC.
Position N 42°21' W 071°02'.
Warning: this ship's position is 51 days out of date.

Length 30 m; draft 2 m.

Type: Passenger vessel. MMSI: 366954420.

Date/timePositionNaut miles runAvg speedWind from/ knotsBaromVisibWave heightAir tempDewpointWater temp
2017-Dec-01 23:20N 42°21' W 071°02'2 4.5
2017-Dec-01 22:51N 42°19' W 071°00'2 6.6
2017-Dec-01 22:30N 42°21' W 071°02'0 0.5
2017-Dec-01 21:56N 42°21' W 071°03'1 0.1
2017-Dec-01 14:35N 42°21' W 071°02'226.6
2017-Dec-01 14:29N 42°20' W 070°59'2 4.2
2017-Dec-01 13:59N 42°20' W 070°56'4 4.3
2017-Dec-01 13:10N 42°19' W 071°01'215.0
2017-Dec-01 13:00N 42°21' W 071°03'2 3.4
2017-Dec-01 12:19N 42°19' W 071°01'2 6.9
2017-Dec-01 11:59N 42°21' W 071°02'0 0.0
2017-Dec-01 11:22N 42°21' W 071°02'0 0.0
2017-Nov-30 23:17N 42°21' W 071°02'310.8
2017-Nov-30 23:00N 42°18' W 071°02'3 6.3
2017-Nov-30 22:31N 42°21' W 071°03'1 2.3
2017-Nov-30 22:00N 42°21' W 071°01'1 2.0
2017-Nov-30 21:30N 42°21' W 071°02'0 0.0
2017-Nov-30 13:47N 42°21' W 071°03'3 9.6
2017-Nov-30 13:28N 42°18' W 071°02'3 6.5
2017-Nov-30 13:00N 42°21' W 071°03'2 3.1
2017-Nov-30 12:15N 42°19' W 071°01'2 9.3
2017-Nov-30 12:00N 42°21' W 071°02'0 0.0
2017-Nov-30 11:30N 42°21' W 071°02'0 0.0
2017-Nov-30 11:00N 42°21' W 071°02'0 0.0
2017-Nov-29 23:20N 42°21' W 071°02'2 3.9
2017-Nov-29 22:48N 42°20' W 071°00'2 6.7
2017-Nov-29 22:30N 42°21' W 071°02'1 1.2
2017-Nov-29 22:00N 42°21' W 071°02'1 0.1
2017-Nov-29 13:43N 42°21' W 071°03'212.3
2017-Nov-29 13:30N 42°19' W 071°01'2 4.8
2017-Nov-29 12:59N 42°21' W 071°03'2 3.3
2017-Nov-29 12:16N 42°19' W 071°01'2 8.5
2017-Nov-29 12:00N 42°21' W 071°02'0 0.0
2017-Nov-29 11:29N 42°21' W 071°02'0 0.1
2017-Nov-29 11:00N 42°21' W 071°02'0 0.0
2017-Nov-28 23:20N 42°21' W 071°02'2 4.0
2017-Nov-28 22:52N 42°20' W 071°00'1 3.7
2017-Nov-28 22:28N 42°21' W 071°02'0 0.5
2017-Nov-28 22:00N 42°21' W 071°02'0 0.0
2017-Nov-28 13:42N 42°21' W 071°03'2 4.1
2017-Nov-28 13:08N 42°20' W 071°00'216.9
2017-Nov-28 13:00N 42°21' W 071°03'2 3.2
2017-Nov-28 12:16N 42°20' W 071°00'2 8.7
2017-Nov-28 12:00N 42°21' W 071°02'0 0.0
2017-Nov-28 11:30N 42°21' W 071°02'0 0.0
2017-Nov-27 23:13N 42°21' W 071°02'2 5.6
2017-Nov-27 22:49N 42°19' W 071°01'2 7.6
2017-Nov-27 22:30N 42°21' W 071°03'1 1.5
2017-Nov-27 21:59N 42°21' W 071°02'1 1.4
2017-Nov-27 21:30N 42°21' W 071°02'0 0.0
2017-Nov-27 13:51N 42°21' W 071°02'3 7.6
2017-Nov-27 13:28N 42°18' W 071°02'3 6.2
2017-Nov-27 13:00N 42°21' W 071°03'2 3.2
2017-Nov-27 12:16N 42°20' W 071°00'2 7.7
2017-Nov-27 11:59N 42°21' W 071°02'0 0.0
2017-Nov-27 11:30N 42°21' W 071°02'  
2017-Nov-24 22:43N 42°21' W 071°02'0 0.7
2017-Nov-24 22:30N 42°21' W 071°03'0 0.0
2017-Nov-24 21:44N 42°21' W 071°03'0 0.6
2017-Nov-24 21:30N 42°21' W 071°02'0 0.0
2017-Nov-24 21:00N 42°21' W 071°02'0 0.0
2017-Nov-24 20:30N 42°21' W 071°02'0 0.0
2017-Nov-24 19:56N 42°21' W 071°02'0 0.0
2017-Nov-24 19:25N 42°21' W 071°02'0 0.0
2017-Nov-24 18:57N 42°21' W 071°02'0 0.0
2017-Nov-24 18:30N 42°21' W 071°02'0 0.0
2017-Nov-24 15:39N 42°21' W 071°02'0 0.0
2017-Nov-24 13:41N 42°21' W 071°02'312.3
2017-Nov-24 13:26N 42°18' W 071°02'3 7.3
2017-Nov-24 13:00N 42°21' W 071°03'2 3.4
2017-Nov-24 12:18N 42°19' W 071°01'2 0.1
2017-Nov-22 23:14N 42°21' W 071°02'2 5.6
2017-Nov-22 22:50N 42°19' W 071°01'  
Track history (hours):
 
Tides and Currents Weather Stations Pressure Air Temp Water Temp Dewpoint Dewpoint Depression Visibility Wind Speed Wind Dir Waves Ship Positions

Provincetown III

Owner: MYSTIC FERRY LEASING LLC, BOSTON, MA. More information available from US FCC via Universal Licensing System and Coast Guard Vessel Documentation Center.

Last reported at 2017-Dec-01 23:20 UTC. Time now 2018-Jan-22 12:44 UTC.
Position N 42°21' W 071°02'.
Warning: this ship's position is 51 days out of date.

Length 30 m; draft 2 m.

Type: Passenger vessel. MMSI: 366954420.

Date/timePositionNaut miles runAvg speedWind from/ knotsBaromVisibWave heightAir tempDewpointWater temp
2017-Dec-01 23:20N 42°21' W 071°02'2 4.5
2017-Dec-01 22:51N 42°19' W 071°00'2 6.6
2017-Dec-01 22:30N 42°21' W 071°02'0 0.5
2017-Dec-01 21:56N 42°21' W 071°03'1 0.1
2017-Dec-01 14:35N 42°21' W 071°02'226.6
2017-Dec-01 14:29N 42°20' W 070°59'2 4.2
2017-Dec-01 13:59N 42°20' W 070°56'4 4.3
2017-Dec-01 13:10N 42°19' W 071°01'215.0
2017-Dec-01 13:00N 42°21' W 071°03'2 3.4
2017-Dec-01 12:19N 42°19' W 071°01'2 6.9
2017-Dec-01 11:59N 42°21' W 071°02'0 0.0
2017-Dec-01 11:22N 42°21' W 071°02'0 0.0
2017-Nov-30 23:17N 42°21' W 071°02'310.8
2017-Nov-30 23:00N 42°18' W 071°02'3 6.3
2017-Nov-30 22:31N 42°21' W 071°03'1 2.3
2017-Nov-30 22:00N 42°21' W 071°01'1 2.0
2017-Nov-30 21:30N 42°21' W 071°02'0 0.0
2017-Nov-30 13:47N 42°21' W 071°03'3 9.6
2017-Nov-30 13:28N 42°18' W 071°02'3 6.5
2017-Nov-30 13:00N 42°21' W 071°03'2 3.1
2017-Nov-30 12:15N 42°19' W 071°01'2 9.3
2017-Nov-30 12:00N 42°21' W 071°02'0 0.0
2017-Nov-30 11:30N 42°21' W 071°02'0 0.0
2017-Nov-30 11:00N 42°21' W 071°02'0 0.0
2017-Nov-29 23:20N 42°21' W 071°02'2 3.9
2017-Nov-29 22:48N 42°20' W 071°00'2 6.7
2017-Nov-29 22:30N 42°21' W 071°02'1 1.2
2017-Nov-29 22:00N 42°21' W 071°02'1 0.1
2017-Nov-29 13:43N 42°21' W 071°03'212.3
2017-Nov-29 13:30N 42°19' W 071°01'2 4.8
2017-Nov-29 12:59N 42°21' W 071°03'2 3.3
2017-Nov-29 12:16N 42°19' W 071°01'2 8.5
2017-Nov-29 12:00N 42°21' W 071°02'0 0.0
2017-Nov-29 11:29N 42°21' W 071°02'0 0.1
2017-Nov-29 11:00N 42°21' W 071°02'0 0.0
2017-Nov-28 23:20N 42°21' W 071°02'2 4.0
2017-Nov-28 22:52N 42°20' W 071°00'1 3.7
2017-Nov-28 22:28N 42°21' W 071°02'0 0.5
2017-Nov-28 22:00N 42°21' W 071°02'0 0.0
2017-Nov-28 13:42N 42°21' W 071°03'2 4.1
2017-Nov-28 13:08N 42°20' W 071°00'216.9
2017-Nov-28 13:00N 42°21' W 071°03'2 3.2
2017-Nov-28 12:16N 42°20' W 071°00'2 8.7
2017-Nov-28 12:00N 42°21' W 071°02'0 0.0
2017-Nov-28 11:30N 42°21' W 071°02'0 0.0
2017-Nov-27 23:13N 42°21' W 071°02'2 5.6
2017-Nov-27 22:49N 42°19' W 071°01'2 7.6
2017-Nov-27 22:30N 42°21' W 071°03'1 1.5
2017-Nov-27 21:59N 42°21' W 071°02'1 1.4
2017-Nov-27 21:30N 42°21' W 071°02'0 0.0
2017-Nov-27 13:51N 42°21' W 071°02'3 7.6
2017-Nov-27 13:28N 42°18' W 071°02'3 6.2
2017-Nov-27 13:00N 42°21' W 071°03'2 3.2
2017-Nov-27 12:16N 42°20' W 071°00'2 7.7
2017-Nov-27 11:59N 42°21' W 071°02'0 0.0
2017-Nov-27 11:30N 42°21' W 071°02'  
2017-Nov-24 22:43N 42°21' W 071°02'0 0.7
2017-Nov-24 22:30N 42°21' W 071°03'0 0.0
2017-Nov-24 21:44N 42°21' W 071°03'0 0.6
2017-Nov-24 21:30N 42°21' W 071°02'0 0.0
2017-Nov-24 21:00N 42°21' W 071°02'0 0.0
2017-Nov-24 20:30N 42°21' W 071°02'0 0.0
2017-Nov-24 19:56N 42°21' W 071°02'0 0.0
2017-Nov-24 19:25N 42°21' W 071°02'0 0.0
2017-Nov-24 18:57N 42°21' W 071°02'0 0.0
2017-Nov-24 18:30N 42°21' W 071°02'0 0.0
2017-Nov-24 15:39N 42°21' W 071°02'0 0.0
2017-Nov-24 13:41N 42°21' W 071°02'312.3
2017-Nov-24 13:26N 42°18' W 071°02'3 7.3
2017-Nov-24 13:00N 42°21' W 071°03'2 3.4
2017-Nov-24 12:18N 42°19' W 071°01'2 0.1
2017-Nov-22 23:14N 42°21' W 071°02'2 5.6
2017-Nov-22 22:50N 42°19' W 071°01'  

Dump ship's entire track history